Flight Track Log - Related Links

Times and Time Zones

All times are in EDT time to prevent confusion due to time zone crossing. See the RPA3228 flight status page for this flight to view local times or setup timezone preferences in your user account.

Time Position Orientation Groundspeed Altitude Reporting Facility
EDT Latitude Longitude Course Direction KTS MPH feet Rate Location/Type
Tue 10:26:44 AM 38.8167 -77.0333 339° North 157 181 1,500  Level Potomac TRACON
Tue 10:27:44 AM 38.7500 -77.0333 180° South 259 298 3,000 2,350 Climbing Potomac TRACON
Tue 10:28:00 AM 39.1235 -77.1436 337° Northwest  Level Estimated
Tue 10:28:44 AM 38.7500 -77.1167 270° West 281 323 6,200  Level Potomac TRACON
Tue 10:29:00 AM 39.2075 -77.1994 333° Northwest  Level FlightAware Approximate
Tue 10:29:45 AM 38.8000 -77.1667 322° Northwest 289 333 9,200  Level Potomac TRACON
Tue 10:30:00 AM 39.2981 -77.2345 339° North  Level Estimated
Tue 10:30:45 AM 38.8667 -77.2333 322° Northwest 303 349 11,100  Level Potomac TRACON
Tue 10:31:00 AM 39.3887 -77.2697 339° North  Level Estimated
Tue 10:32:20 AM 38.9753 -77.3672 316° Northwest 332 382 14,400  Level Washington Center
Tue 10:33:21 AM 39.0578 -77.4253 331° Northwest 338 389 16,600 1,488 Climbing Washington Center
Tue 10:34:21 AM 39.1536 -77.4303 358° North 322 371 17,400 1,370 Climbing Washington Center
Tue 10:36:03 AM 39.3306 -77.4389 358° North 339 390 20,300 1,640 Climbing New York Center
Tue 10:37:02 AM 39.4367 -77.4461 357° North 357 411 21,800 1,866 Climbing New York Center
Tue 10:38:02 AM 39.5406 -77.4506 358° North 371 427 24,000 1,100 Climbing New York Center
Tue 10:39:02 AM 39.6486 -77.4581 357° North 377 434 24,000  Level New York Center
Tue 10:40:02 AM 39.7614 -77.4553 North 389 448 24,000  Level New York Center
Tue 10:41:02 AM 39.8758 -77.4608 358° North 400 460 24,000  Level New York Center
Tue 10:42:02 AM 39.9842 -77.4983 345° North 400 460 24,000  Level New York Center
Tue 10:43:02 AM 40.0944 -77.5414 343° North 405 466 24,000  Level New York Center
Tue 10:44:02 AM 40.2047 -77.5794 345° North 410 472 24,000  Level New York Center
Tue 10:45:02 AM 40.3131 -77.6200 344° North 410 472 24,000  Level New York Center
Tue 10:46:03 AM 40.4189 -77.6606 344° North 410 472 24,000  Level New York Center
Tue 10:47:02 AM 40.5264 -77.7122 340° North 410 472 24,000  Level New York Center
Tue 10:49:24 AM 40.7564 -77.8803 331° Northwest 415 478 24,000  Level Cleveland Center
Tue 10:50:24 AM 40.8561 -77.9503 332° Northwest 409 471 24,000  Level Cleveland Center
Tue 10:51:24 AM 40.9597 -78.0094 337° Northwest 409 471 24,000  Level Cleveland Center
Tue 10:52:24 AM 41.0689 -78.0492 345° North 398 458 24,000  Level Cleveland Center
Tue 10:53:24 AM 41.1781 -78.0864 346° North 398 458 24,000  Level Cleveland Center
Tue 10:54:24 AM 41.2917 -78.1264 345° North 408 470 24,000  Level Cleveland Center
Tue 10:55:24 AM 41.3986 -78.1639 345° North 408 470 24,000  Level Cleveland Center
Tue 10:56:24 AM 41.4956 -78.2017 344° North 403 464 24,000  Level Cleveland Center
Tue 10:57:24 AM 41.6067 -78.2392 346° North 403 464 24,000 -50 Level Cleveland Center
Tue 10:58:24 AM 41.7139 -78.2800 344° North 403 464 23,900 -1,050 Descending Cleveland Center
Tue 10:59:24 AM 41.8189 -78.3181 345° North 398 458 21,900 -2,050 Descending Cleveland Center
Tue 11:00:24 AM 41.9217 -78.3533 346° North 398 458 19,800 -2,100 Descending Cleveland Center
Tue 11:01:24 AM 42.0261 -78.3694 353° North 382 440 17,700 -2,100 Descending Cleveland Center
Tue 11:02:24 AM 42.1244 -78.3742 358° North 368 423 15,600 -1,950 Descending Cleveland Center
Tue 11:03:24 AM 42.2222 -78.3767 359° North 343 395 13,800 -1,850 Descending Cleveland Center
Tue 11:04:24 AM 42.3036 -78.3764 360° North 309 356 11,900 -1,600 Descending Cleveland Center
Tue 11:05:24 AM 42.3828 -78.3767 360° North 288 331 10,600 -1,700 Descending Cleveland Center
Tue 11:06:24 AM 42.4578 -78.3711 North 276 318 8,500 -1,850 Descending Cleveland Center
Tue 11:07:24 AM 42.5267 -78.3744 358° North 271 312 6,900 -1,600 Descending Cleveland Center
Tue 11:08:24 AM 42.6019 -78.3858 354° North 271 312 5,300 -1,000 Descending Cleveland Center
Tue 11:09:24 AM 42.6450 -78.4550 310° West 233 268 4,900 -200 Descending Cleveland Center
Tue 11:10:24 AM 42.7017 -78.4869 337° Northwest 228 262 4,900  Level Cleveland Center
Tue 11:11:24 AM 42.7783 -78.4561 16° North 222 255 4,900  Level Cleveland Center
Tue 11:12:24 AM 42.8486 -78.4308 15° North 248 285 4,900 -320 Level Cleveland Center
Tue 11:14:13 AM 42.9500 -78.4667 345° North 224 258 4,000 -888 Descending Buffalo TRACON
Tue 11:15:13 AM 43.0000 -78.5333 316° Northwest 215 247 2,400 -800 Descending Buffalo TRACON
Tue 11:16:13 AM 43.0333 -78.5833 312° West 212 244 2,400  Level Buffalo TRACON
Tue 11:17:19 AM 43.0167 -78.6333 246° West 147 169 2,400 -381 Level Buffalo TRACON
Tue 11:18:19 AM 42.9833 -78.6833 228° Southwest 149 171 1,600 -684 Descending Buffalo TRACON
Tue 11:19:13 AM 42.9500 -78.7000 200° South 119 137 1,100 -556 Descending Buffalo TRACON

Login

Don't have an account? Register now (free) for customized features, flight alerts, and more!